sensor_id;sensor_type;location;lat;lon;timestamp;P1;durP1;ratioP1;P2;durP2;ratioP2
64235;SDS011;50564;47.402;9.740;2023-04-03T00:02:51;0.60;;;0.60;;
64235;SDS011;50564;47.402;9.740;2023-04-03T00:07:52;0.90;;;0.70;;
64235;SDS011;50564;47.402;9.740;2023-04-03T00:12:52;0.50;;;0.50;;
64235;SDS011;50564;47.402;9.740;2023-04-03T00:17:53;0.50;;;0.50;;
64235;SDS011;50564;47.402;9.740;2023-04-03T00:22:54;1.95;;;0.63;;
64235;SDS011;50564;47.402;9.740;2023-04-03T00:27:55;0.95;;;0.57;;
64235;SDS011;50564;47.402;9.740;2023-04-03T00:32:56;0.75;;;0.75;;
64235;SDS011;50564;47.402;9.740;2023-04-03T00:37:57;1.00;;;0.90;;
64235;SDS011;50564;47.402;9.740;2023-04-03T00:42:58;0.85;;;0.75;;
64235;SDS011;50564;47.402;9.740;2023-04-03T00:47:59;1.17;;;1.05;;
64235;SDS011;50564;47.402;9.740;2023-04-03T00:53:03;0.90;;;0.90;;
64235;SDS011;50564;47.402;9.740;2023-04-03T00:58:04;1.00;;;0.90;;
64235;SDS011;50564;47.402;9.740;2023-04-03T01:03:07;1.75;;;1.15;;
64235;SDS011;50564;47.402;9.740;2023-04-03T01:08:09;1.20;;;1.10;;
64235;SDS011;50564;47.402;9.740;2023-04-03T01:13:23;1.50;;;1.40;;
64235;SDS011;50564;47.402;9.740;2023-04-03T01:18:26;1.92;;;1.77;;
64235;SDS011;50564;47.402;9.740;2023-04-03T01:28:46;3.05;;;2.28;;
64235;SDS011;50564;47.402;9.740;2023-04-03T01:33:47;3.17;;;2.17;;
64235;SDS011;50564;47.402;9.740;2023-04-03T01:38:48;2.95;;;2.38;;
64235;SDS011;50564;47.402;9.740;2023-04-03T01:43:49;3.97;;;2.17;;
64235;SDS011;50564;47.402;9.740;2023-04-03T01:48:50;3.72;;;2.97;;
64235;SDS011;50564;47.402;9.740;2023-04-03T01:53:50;5.15;;;4.00;;
64235;SDS011;50564;47.402;9.740;2023-04-03T01:58:52;5.80;;;3.97;;
64235;SDS011;50564;47.402;9.740;2023-04-03T02:03:52;5.95;;;3.80;;
64235;SDS011;50564;47.402;9.740;2023-04-03T02:08:53;5.35;;;3.88;;
64235;SDS011;50564;47.402;9.740;2023-04-03T02:13:54;4.57;;;3.67;;
64235;SDS011;50564;47.402;9.740;2023-04-03T02:18:54;6.40;;;4.65;;
64235;SDS011;50564;47.402;9.740;2023-04-03T02:23:55;5.70;;;4.28;;
64235;SDS011;50564;47.402;9.740;2023-04-03T02:28:57;5.20;;;4.13;;
64235;SDS011;50564;47.402;9.740;2023-04-03T02:33:58;6.95;;;4.50;;
64235;SDS011;50564;47.402;9.740;2023-04-03T02:38:59;6.53;;;4.43;;
64235;SDS011;50564;47.402;9.740;2023-04-03T02:44:00;7.25;;;4.80;;
64235;SDS011;50564;47.402;9.740;2023-04-03T02:49:05;7.50;;;6.22;;
64235;SDS011;50564;47.402;9.740;2023-04-03T02:54:06;7.25;;;5.60;;
64235;SDS011;50564;47.402;9.740;2023-04-03T02:59:10;5.80;;;4.55;;
64235;SDS011;50564;47.402;9.740;2023-04-03T03:04:13;8.43;;;5.40;;
64235;SDS011;50564;47.402;9.740;2023-04-03T03:09:13;7.10;;;5.32;;
64235;SDS011;50564;47.402;9.740;2023-04-03T03:14:16;6.80;;;4.82;;
64235;SDS011;50564;47.402;9.740;2023-04-03T03:19:17;6.75;;;5.20;;
64235;SDS011;50564;47.402;9.740;2023-04-03T03:24:17;8.70;;;6.60;;
64235;SDS011;50564;47.402;9.740;2023-04-03T03:29:18;9.93;;;7.63;;
64235;SDS011;50564;47.402;9.740;2023-04-03T03:34:19;8.77;;;6.47;;
64235;SDS011;50564;47.402;9.740;2023-04-03T03:39:20;9.50;;;6.75;;
64235;SDS011;50564;47.402;9.740;2023-04-03T03:44:21;9.85;;;7.47;;
64235;SDS011;50564;47.402;9.740;2023-04-03T03:49:21;9.90;;;7.00;;
64235;SDS011;50564;47.402;9.740;2023-04-03T03:54:23;11.32;;;7.40;;
64235;SDS011;50564;47.402;9.740;2023-04-03T03:59:25;10.65;;;7.60;;
64235;SDS011;50564;47.402;9.740;2023-04-03T04:04:26;10.30;;;7.60;;
64235;SDS011;50564;47.402;9.740;2023-04-03T04:09:27;10.90;;;7.53;;
64235;SDS011;50564;47.402;9.740;2023-04-03T04:14:28;10.25;;;7.40;;
64235;SDS011;50564;47.402;9.740;2023-04-03T04:19:30;10.52;;;7.13;;
64235;SDS011;50564;47.402;9.740;2023-04-03T04:24:30;10.18;;;7.40;;
64235;SDS011;50564;47.402;9.740;2023-04-03T04:29:31;14.10;;;7.97;;
64235;SDS011;50564;47.402;9.740;2023-04-03T04:34:36;13.43;;;9.43;;
64235;SDS011;50564;47.402;9.740;2023-04-03T04:39:37;11.60;;;9.02;;
64235;SDS011;50564;47.402;9.740;2023-04-03T04:44:39;12.55;;;9.18;;
64235;SDS011;50564;47.402;9.740;2023-04-03T04:49:40;10.75;;;8.13;;
64235;SDS011;50564;47.402;9.740;2023-04-03T04:54:41;12.93;;;8.73;;
64235;SDS011;50564;47.402;9.740;2023-04-03T04:59:42;10.27;;;8.00;;
64235;SDS011;50564;47.402;9.740;2023-04-03T05:04:43;11.77;;;8.70;;
64235;SDS011;50564;47.402;9.740;2023-04-03T05:09:50;8.75;;;6.78;;
64235;SDS011;50564;47.402;9.740;2023-04-03T05:14:52;12.07;;;8.30;;
64235;SDS011;50564;47.402;9.740;2023-04-03T05:19:52;11.88;;;8.35;;
64235;SDS011;50564;47.402;9.740;2023-04-03T05:24:55;12.77;;;9.30;;
64235;SDS011;50564;47.402;9.740;2023-04-03T05:29:58;12.18;;;9.25;;
64235;SDS011;50564;47.402;9.740;2023-04-03T05:35:00;12.75;;;9.48;;
64235;SDS011;50564;47.402;9.740;2023-04-03T05:40:02;12.93;;;9.75;;
64235;SDS011;50564;47.402;9.740;2023-04-03T05:45:04;12.90;;;8.57;;
64235;SDS011;50564;47.402;9.740;2023-04-03T05:50:05;11.05;;;8.88;;
64235;SDS011;50564;47.402;9.740;2023-04-03T05:55:07;13.13;;;8.40;;
64235;SDS011;50564;47.402;9.740;2023-04-03T06:00:11;12.48;;;8.90;;
64235;SDS011;50564;47.402;9.740;2023-04-03T06:05:19;12.10;;;9.15;;
64235;SDS011;50564;47.402;9.740;2023-04-03T06:10:20;16.15;;;11.45;;
64235;SDS011;50564;47.402;9.740;2023-04-03T06:15:21;13.00;;;9.88;;
64235;SDS011;50564;47.402;9.740;2023-04-03T06:20:22;12.43;;;9.27;;
64235;SDS011;50564;47.402;9.740;2023-04-03T06:25:23;12.93;;;9.70;;
64235;SDS011;50564;47.402;9.740;2023-04-03T06:30:24;14.15;;;10.02;;
64235;SDS011;50564;47.402;9.740;2023-04-03T06:35:25;11.02;;;8.73;;
64235;SDS011;50564;47.402;9.740;2023-04-03T06:40:28;12.80;;;9.35;;
64235;SDS011;50564;47.402;9.740;2023-04-03T06:45:28;10.93;;;8.20;;
64235;SDS011;50564;47.402;9.740;2023-04-03T06:50:29;14.40;;;10.10;;
64235;SDS011;50564;47.402;9.740;2023-04-03T06:55:30;14.07;;;10.23;;
64235;SDS011;50564;47.402;9.740;2023-04-03T07:00:31;13.52;;;10.55;;
64235;SDS011;50564;47.402;9.740;2023-04-03T07:05:32;12.98;;;10.50;;
64235;SDS011;50564;47.402;9.740;2023-04-03T07:10:33;14.00;;;10.75;;
64235;SDS011;50564;47.402;9.740;2023-04-03T07:15:34;16.52;;;11.68;;
64235;SDS011;50564;47.402;9.740;2023-04-03T07:20:36;12.75;;;10.15;;
64235;SDS011;50564;47.402;9.740;2023-04-03T07:25:37;13.07;;;10.32;;
64235;SDS011;50564;47.402;9.740;2023-04-03T07:30:43;13.13;;;10.43;;
64235;SDS011;50564;47.402;9.740;2023-04-03T07:35:48;13.05;;;10.23;;
64235;SDS011;50564;47.402;9.740;2023-04-03T07:40:49;13.20;;;10.20;;
64235;SDS011;50564;47.402;9.740;2023-04-03T07:45:50;14.63;;;10.68;;
64235;SDS011;50564;47.402;9.740;2023-04-03T07:50:51;14.38;;;10.50;;
64235;SDS011;50564;47.402;9.740;2023-04-03T07:55:52;14.88;;;10.27;;
64235;SDS011;50564;47.402;9.740;2023-04-03T08:00:56;14.10;;;11.10;;
64235;SDS011;50564;47.402;9.740;2023-04-03T08:06:01;14.18;;;10.98;;
64235;SDS011;50564;47.402;9.740;2023-04-03T08:11:06;14.15;;;10.07;;
64235;SDS011;50564;47.402;9.740;2023-04-03T08:16:12;13.32;;;10.05;;
64235;SDS011;50564;47.402;9.740;2023-04-03T08:21:15;12.13;;;9.00;;
64235;SDS011;50564;47.402;9.740;2023-04-03T08:26:18;13.40;;;9.82;;
64235;SDS011;50564;47.402;9.740;2023-04-03T08:31:21;12.50;;;10.02;;
64235;SDS011;50564;47.402;9.740;2023-04-03T08:36:23;13.30;;;9.88;;
64235;SDS011;50564;47.402;9.740;2023-04-03T08:41:29;14.23;;;10.45;;
64235;SDS011;50564;47.402;9.740;2023-04-03T08:46:47;14.55;;;11.57;;
64235;SDS011;50564;47.402;9.740;2023-04-03T08:52:01;12.93;;;9.57;;
64235;SDS011;50564;47.402;9.740;2023-04-03T08:57:04;12.00;;;8.95;;
64235;SDS011;50564;47.402;9.740;2023-04-03T09:07:46;11.63;;;9.18;;
64235;SDS011;50564;47.402;9.740;2023-04-03T09:23:32;10.23;;;7.50;;
64235;SDS011;50564;47.402;9.740;2023-04-03T09:28:44;11.07;;;7.95;;
64235;SDS011;50564;47.402;9.740;2023-04-03T09:33:46;10.65;;;8.02;;
64235;SDS011;50564;47.402;9.740;2023-04-03T09:39:02;10.65;;;8.07;;
64235;SDS011;50564;47.402;9.740;2023-04-03T09:44:19;11.65;;;8.20;;
64235;SDS011;50564;47.402;9.740;2023-04-03T09:49:22;13.18;;;7.97;;
64235;SDS011;50564;47.402;9.740;2023-04-03T09:54:31;11.80;;;8.40;;
64235;SDS011;50564;47.402;9.740;2023-04-03T09:59:31;10.82;;;7.50;;
64235;SDS011;50564;47.402;9.740;2023-04-03T10:04:41;10.93;;;7.80;;
64235;SDS011;50564;47.402;9.740;2023-04-03T10:09:43;12.57;;;7.90;;
64235;SDS011;50564;47.402;9.740;2023-04-03T10:14:57;10.02;;;7.15;;
64235;SDS011;50564;47.402;9.740;2023-04-03T10:46:04;8.43;;;6.03;;
64235;SDS011;50564;47.402;9.740;2023-04-03T10:51:15;10.05;;;5.85;;
64235;SDS011;50564;47.402;9.740;2023-04-03T10:56:37;8.38;;;6.05;;
64235;SDS011;50564;47.402;9.740;2023-04-03T11:01:41;16.77;;;9.15;;
64235;SDS011;50564;47.402;9.740;2023-04-03T11:06:45;9.65;;;5.47;;
64235;SDS011;50564;47.402;9.740;2023-04-03T11:11:48;9.27;;;5.40;;
64235;SDS011;50564;47.402;9.740;2023-04-03T11:17:01;6.25;;;4.43;;
64235;SDS011;50564;47.402;9.740;2023-04-03T11:22:22;9.77;;;7.53;;
64235;SDS011;50564;47.402;9.740;2023-04-03T11:27:24;7.15;;;4.95;;
64235;SDS011;50564;47.402;9.740;2023-04-03T11:37:33;10.80;;;4.47;;
64235;SDS011;50564;47.402;9.740;2023-04-03T11:42:38;6.05;;;3.67;;
64235;SDS011;50564;47.402;9.740;2023-04-03T11:47:44;6.28;;;3.90;;
64235;SDS011;50564;47.402;9.740;2023-04-03T12:03:00;4.93;;;3.08;;
64235;SDS011;50564;47.402;9.740;2023-04-03T12:08:24;4.95;;;3.25;;
64235;SDS011;50564;47.402;9.740;2023-04-03T12:13:27;5.38;;;3.00;;
64235;SDS011;50564;47.402;9.740;2023-04-03T12:18:31;4.75;;;3.00;;
64235;SDS011;50564;47.402;9.740;2023-04-03T12:24:01;4.25;;;2.78;;
64235;SDS011;50564;47.402;9.740;2023-04-03T12:34:46;5.05;;;3.28;;
64235;SDS011;50564;47.402;9.740;2023-04-03T12:40:28;4.95;;;2.97;;
64235;SDS011;50564;47.402;9.740;2023-04-03T12:51:07;5.03;;;2.50;;
64235;SDS011;50564;47.402;9.740;2023-04-03T13:01:40;3.55;;;2.58;;
64235;SDS011;50564;47.402;9.740;2023-04-03T13:06:42;4.55;;;2.85;;
64235;SDS011;50564;47.402;9.740;2023-04-03T13:11:44;3.22;;;2.35;;
64235;SDS011;50564;47.402;9.740;2023-04-03T13:16:59;6.13;;;4.13;;
64235;SDS011;50564;47.402;9.740;2023-04-03T13:22:04;2.75;;;2.20;;
64235;SDS011;50564;47.402;9.740;2023-04-03T13:27:07;2.97;;;2.13;;
64235;SDS011;50564;47.402;9.740;2023-04-03T13:32:16;3.00;;;2.50;;
64235;SDS011;50564;47.402;9.740;2023-04-03T13:37:30;3.28;;;2.45;;
64235;SDS011;50564;47.402;9.740;2023-04-03T13:42:32;5.65;;;2.70;;
64235;SDS011;50564;47.402;9.740;2023-04-03T13:47:38;4.38;;;2.28;;
64235;SDS011;50564;47.402;9.740;2023-04-03T13:52:45;3.47;;;2.70;;
64235;SDS011;50564;47.402;9.740;2023-04-03T13:57:52;3.85;;;2.45;;
64235;SDS011;50564;47.402;9.740;2023-04-03T14:02:57;4.68;;;2.50;;
64235;SDS011;50564;47.402;9.740;2023-04-03T14:07:58;4.82;;;3.13;;
64235;SDS011;50564;47.402;9.740;2023-04-03T14:12:59;5.68;;;3.20;;
64235;SDS011;50564;47.402;9.740;2023-04-03T14:18:00;5.18;;;2.90;;
64235;SDS011;50564;47.402;9.740;2023-04-03T14:23:01;4.47;;;3.22;;
64235;SDS011;50564;47.402;9.740;2023-04-03T14:28:06;5.22;;;3.25;;
64235;SDS011;50564;47.402;9.740;2023-04-03T14:33:15;4.45;;;3.22;;
64235;SDS011;50564;47.402;9.740;2023-04-03T14:38:29;4.97;;;3.38;;
64235;SDS011;50564;47.402;9.740;2023-04-03T14:43:30;7.75;;;3.20;;
64235;SDS011;50564;47.402;9.740;2023-04-03T14:48:31;4.68;;;3.10;;
64235;SDS011;50564;47.402;9.740;2023-04-03T14:53:32;5.03;;;3.15;;
64235;SDS011;50564;47.402;9.740;2023-04-03T14:58:33;4.88;;;3.22;;
64235;SDS011;50564;47.402;9.740;2023-04-03T15:03:36;5.35;;;3.45;;
64235;SDS011;50564;47.402;9.740;2023-04-03T15:08:37;3.47;;;2.60;;
64235;SDS011;50564;47.402;9.740;2023-04-03T15:13:38;5.22;;;3.53;;
64235;SDS011;50564;47.402;9.740;2023-04-03T15:18:39;6.15;;;3.67;;
64235;SDS011;50564;47.402;9.740;2023-04-03T15:23:39;5.53;;;3.47;;
64235;SDS011;50564;47.402;9.740;2023-04-03T15:28:41;7.07;;;3.72;;
64235;SDS011;50564;47.402;9.740;2023-04-03T15:33:42;8.50;;;4.40;;
64235;SDS011;50564;47.402;9.740;2023-04-03T15:38:43;7.72;;;4.28;;
64235;SDS011;50564;47.402;9.740;2023-04-03T15:43:43;6.55;;;4.07;;
64235;SDS011;50564;47.402;9.740;2023-04-03T15:48:44;7.40;;;4.25;;
64235;SDS011;50564;47.402;9.740;2023-04-03T15:53:45;7.78;;;4.70;;
64235;SDS011;50564;47.402;9.740;2023-04-03T15:58:45;6.38;;;4.28;;
64235;SDS011;50564;47.402;9.740;2023-04-03T16:03:46;8.57;;;4.80;;
64235;SDS011;50564;47.402;9.740;2023-04-03T16:08:47;5.50;;;3.58;;
64235;SDS011;50564;47.402;9.740;2023-04-03T16:13:48;6.35;;;3.63;;
64235;SDS011;50564;47.402;9.740;2023-04-03T16:18:49;6.95;;;3.80;;
64235;SDS011;50564;47.402;9.740;2023-04-03T16:23:50;4.95;;;3.75;;
64235;SDS011;50564;47.402;9.740;2023-04-03T16:28:51;6.57;;;4.00;;
64235;SDS011;50564;47.402;9.740;2023-04-03T16:33:52;5.90;;;3.45;;
64235;SDS011;50564;47.402;9.740;2023-04-03T16:38:54;5.35;;;3.58;;
64235;SDS011;50564;47.402;9.740;2023-04-03T16:43:55;7.00;;;3.67;;
64235;SDS011;50564;47.402;9.740;2023-04-03T16:48:56;4.68;;;3.20;;
64235;SDS011;50564;47.402;9.740;2023-04-03T16:53:57;6.30;;;3.58;;
64235;SDS011;50564;47.402;9.740;2023-04-03T16:58:58;5.47;;;3.63;;
64235;SDS011;50564;47.402;9.740;2023-04-03T17:03:58;4.35;;;3.63;;
64235;SDS011;50564;47.402;9.740;2023-04-03T17:08:59;5.45;;;3.28;;
64235;SDS011;50564;47.402;9.740;2023-04-03T17:14:00;4.80;;;3.00;;
64235;SDS011;50564;47.402;9.740;2023-04-03T17:19:01;6.70;;;3.15;;
64235;SDS011;50564;47.402;9.740;2023-04-03T17:24:03;6.93;;;3.28;;
64235;SDS011;50564;47.402;9.740;2023-04-03T17:29:08;6.53;;;3.58;;
64235;SDS011;50564;47.402;9.740;2023-04-03T17:34:09;4.85;;;3.33;;
64235;SDS011;50564;47.402;9.740;2023-04-03T17:39:11;4.88;;;3.70;;
64235;SDS011;50564;47.402;9.740;2023-04-03T17:44:12;4.32;;;2.80;;
64235;SDS011;50564;47.402;9.740;2023-04-03T17:49:12;4.55;;;2.75;;
64235;SDS011;50564;47.402;9.740;2023-04-03T17:54:15;7.30;;;3.47;;
64235;SDS011;50564;47.402;9.740;2023-04-03T17:59:16;5.18;;;3.33;;
64235;SDS011;50564;47.402;9.740;2023-04-03T18:04:21;5.60;;;3.20;;
64235;SDS011;50564;47.402;9.740;2023-04-03T18:09:26;3.83;;;2.75;;
64235;SDS011;50564;47.402;9.740;2023-04-03T18:14:29;4.57;;;2.55;;
64235;SDS011;50564;47.402;9.740;2023-04-03T18:19:33;2.60;;;2.22;;
64235;SDS011;50564;47.402;9.740;2023-04-03T18:24:34;3.63;;;2.63;;
64235;SDS011;50564;47.402;9.740;2023-04-03T18:29:35;4.38;;;3.10;;
64235;SDS011;50564;47.402;9.740;2023-04-03T18:34:38;4.68;;;2.95;;
64235;SDS011;50564;47.402;9.740;2023-04-03T18:39:39;6.93;;;3.25;;
64235;SDS011;50564;47.402;9.740;2023-04-03T18:44:40;4.60;;;2.92;;
64235;SDS011;50564;47.402;9.740;2023-04-03T18:49:43;6.63;;;3.67;;
64235;SDS011;50564;47.402;9.740;2023-04-03T18:54:44;5.78;;;3.22;;
64235;SDS011;50564;47.402;9.740;2023-04-03T18:59:45;5.38;;;3.25;;
64235;SDS011;50564;47.402;9.740;2023-04-03T19:04:46;5.70;;;3.35;;
64235;SDS011;50564;47.402;9.740;2023-04-03T19:09:47;3.65;;;2.47;;
64235;SDS011;50564;47.402;9.740;2023-04-03T19:14:48;5.45;;;3.45;;
64235;SDS011;50564;47.402;9.740;2023-04-03T19:19:49;3.78;;;2.38;;
64235;SDS011;50564;47.402;9.740;2023-04-03T19:24:51;3.95;;;2.55;;
64235;SDS011;50564;47.402;9.740;2023-04-03T19:29:52;4.25;;;2.55;;
64235;SDS011;50564;47.402;9.740;2023-04-03T19:34:55;3.60;;;2.47;;
64235;SDS011;50564;47.402;9.740;2023-04-03T19:39:58;5.03;;;3.08;;
64235;SDS011;50564;47.402;9.740;2023-04-03T19:45:00;3.75;;;2.58;;
64235;SDS011;50564;47.402;9.740;2023-04-03T19:50:02;4.45;;;2.88;;
64235;SDS011;50564;47.402;9.740;2023-04-03T19:55:04;4.90;;;3.05;;
64235;SDS011;50564;47.402;9.740;2023-04-03T20:00:05;4.95;;;2.70;;
64235;SDS011;50564;47.402;9.740;2023-04-03T20:05:11;4.25;;;2.92;;
64235;SDS011;50564;47.402;9.740;2023-04-03T20:10:13;5.25;;;2.70;;
64235;SDS011;50564;47.402;9.740;2023-04-03T20:15:15;4.43;;;2.83;;
64235;SDS011;50564;47.402;9.740;2023-04-03T20:20:16;4.15;;;2.97;;
64235;SDS011;50564;47.402;9.740;2023-04-03T20:25:19;4.45;;;2.38;;
64235;SDS011;50564;47.402;9.740;2023-04-03T20:30:21;4.43;;;2.45;;
64235;SDS011;50564;47.402;9.740;2023-04-03T20:35:21;3.47;;;2.35;;
64235;SDS011;50564;47.402;9.740;2023-04-03T20:40:24;5.10;;;2.60;;
64235;SDS011;50564;47.402;9.740;2023-04-03T20:45:25;3.90;;;2.50;;
64235;SDS011;50564;47.402;9.740;2023-04-03T20:50:27;5.45;;;2.50;;
64235;SDS011;50564;47.402;9.740;2023-04-03T20:55:29;4.22;;;2.67;;
64235;SDS011;50564;47.402;9.740;2023-04-03T21:00:30;4.57;;;2.20;;
64235;SDS011;50564;47.402;9.740;2023-04-03T21:05:31;5.63;;;2.47;;
64235;SDS011;50564;47.402;9.740;2023-04-03T21:21:19;3.58;;;2.42;;
64235;SDS011;50564;47.402;9.740;2023-04-03T21:26:24;3.67;;;2.53;;
64235;SDS011;50564;47.402;9.740;2023-04-03T21:31:45;5.63;;;2.45;;
64235;SDS011;50564;47.402;9.740;2023-04-03T21:37:02;3.15;;;2.10;;
64235;SDS011;50564;47.402;9.740;2023-04-03T21:42:03;4.32;;;2.13;;
64235;SDS011;50564;47.402;9.740;2023-04-03T21:47:06;6.85;;;2.97;;
64235;SDS011;50564;47.402;9.740;2023-04-03T21:52:07;4.40;;;2.20;;
64235;SDS011;50564;47.402;9.740;2023-04-03T21:57:08;4.45;;;2.38;;
64235;SDS011;50564;47.402;9.740;2023-04-03T22:02:12;6.20;;;2.70;;
64235;SDS011;50564;47.402;9.740;2023-04-03T22:07:13;3.95;;;2.33;;
64235;SDS011;50564;47.402;9.740;2023-04-03T22:12:14;5.40;;;2.75;;
64235;SDS011;50564;47.402;9.740;2023-04-03T22:17:14;3.80;;;2.40;;
64235;SDS011;50564;47.402;9.740;2023-04-03T22:22:16;4.75;;;2.47;;
64235;SDS011;50564;47.402;9.740;2023-04-03T22:27:16;4.43;;;2.08;;
64235;SDS011;50564;47.402;9.740;2023-04-03T22:32:17;2.90;;;2.10;;
64235;SDS011;50564;47.402;9.740;2023-04-03T22:37:18;3.88;;;2.22;;
64235;SDS011;50564;47.402;9.740;2023-04-03T22:42:18;3.30;;;1.92;;
64235;SDS011;50564;47.402;9.740;2023-04-03T22:47:19;4.97;;;2.25;;
64235;SDS011;50564;47.402;9.740;2023-04-03T22:52:20;4.88;;;2.20;;
64235;SDS011;50564;47.402;9.740;2023-04-03T22:57:21;4.65;;;2.50;;
64235;SDS011;50564;47.402;9.740;2023-04-03T23:02:22;2.97;;;2.25;;
64235;SDS011;50564;47.402;9.740;2023-04-03T23:07:23;3.40;;;2.20;;
64235;SDS011;50564;47.402;9.740;2023-04-03T23:12:23;3.17;;;2.17;;
64235;SDS011;50564;47.402;9.740;2023-04-03T23:17:24;4.00;;;2.17;;
64235;SDS011;50564;47.402;9.740;2023-04-03T23:22:26;4.20;;;2.50;;
64235;SDS011;50564;47.402;9.740;2023-04-03T23:27:26;3.47;;;2.20;;
64235;SDS011;50564;47.402;9.740;2023-04-03T23:32:27;3.47;;;2.10;;
64235;SDS011;50564;47.402;9.740;2023-04-03T23:37:29;3.65;;;2.35;;
64235;SDS011;50564;47.402;9.740;2023-04-03T23:42:29;3.28;;;2.20;;
64235;SDS011;50564;47.402;9.740;2023-04-03T23:47:30;4.85;;;2.33;;
64235;SDS011;50564;47.402;9.740;2023-04-03T23:52:31;6.13;;;2.75;;
64235;SDS011;50564;47.402;9.740;2023-04-03T23:57:32;3.90;;;2.60;;
